Airport View

Enter AWOS ICAO identifier for current METAR.

ex. KFNL

KDRM 280255Z AUTO 00000KT 10SM OVC100 14/12 A2973 RMK AO2 T01430123

28 Sep 2020 03:18

Frequency: 118.325

Phone: 906-493-6410

Other Area AWOS: KCIU - KPZQ - KMCD - KANJ

TAF CYAM 280138Z 2802/2814 22008KT P6SM SCT015 OVC160 TEMPO 2802/2812 BKN015 BECMG 2802/2804 VRB03KT FM281200 VRB03KT P6SM SCT012 OVC100 TEMPO 2812/2814 P6SM -SHRA BKN012 OVC080 RMK NXT FCST BY 280800Z